createdAt,value
2019-02-15T00:03:22.508Z,7.33
2019-02-15T00:08:26.883Z,8.07
2019-02-15T00:13:31.256Z,7.73
2019-02-15T00:18:37.237Z,7.70
2019-02-15T00:23:41.684Z,7.77
2019-02-15T00:28:46.041Z,7.27
2019-02-15T00:33:51.681Z,8.30
2019-02-15T00:38:56.024Z,7.37
2019-02-15T00:44:00.394Z,7.50
2019-02-15T00:49:05.638Z,7.20
2019-02-15T00:54:11.650Z,7.43
2019-02-15T00:59:23.390Z,6.87
2019-02-15T01:04:29.388Z,7.03
2019-02-15T01:09:35.387Z,6.60
2019-02-15T01:14:39.743Z,7.10
2019-02-15T01:19:44.157Z,6.40
2019-02-15T01:24:48.492Z,6.87
2019-02-15T01:29:57.202Z,7.13
2019-02-15T01:35:09.199Z,6.50
2019-02-15T01:40:15.180Z,7.00
2019-02-15T01:45:26.991Z,7.53
2019-02-15T01:50:31.377Z,6.57
2019-02-15T01:55:35.740Z,6.77
2019-02-15T02:00:40.392Z,7.07
2019-02-15T02:05:44.906Z,6.50
2019-02-15T02:10:49.280Z,6.33
2019-02-15T02:15:53.647Z,7.03
2019-02-15T02:20:58.014Z,6.60
2019-02-15T02:26:02.406Z,6.80
2019-02-15T02:31:06.783Z,7.00
2019-02-15T02:36:11.153Z,7.67
2019-02-15T02:41:15.545Z,7.57
2019-02-15T02:46:20.058Z,7.17
2019-02-15T02:51:24.388Z,7.03
2019-02-15T02:56:28.745Z,7.50
2019-02-15T03:01:33.134Z,7.70
2019-02-15T03:06:37.526Z,7.55
2019-02-15T03:11:41.853Z,8.40
2019-02-15T03:16:46.227Z,7.03
2019-02-15T03:21:50.609Z,7.20
2019-02-15T03:26:54.965Z,7.17
2019-02-15T03:31:59.342Z,7.40
2019-02-15T03:37:21.845Z,7.30
2019-02-15T03:42:26.356Z,7.27
2019-02-15T03:47:30.838Z,7.27
2019-02-15T03:52:35.250Z,7.23
2019-02-15T03:57:39.602Z,6.93
2019-02-15T04:02:44.051Z,6.93
2019-02-15T04:07:48.394Z,5.63
2019-02-15T04:12:52.779Z,6.50
2019-02-15T04:17:57.153Z,6.87
2019-02-15T04:23:01.508Z,6.23
2019-02-15T04:28:05.884Z,7.00
2019-02-15T04:33:10.229Z,6.80
2019-02-15T04:38:14.799Z,7.20
2019-02-15T04:43:20.193Z,7.27
2019-02-15T04:48:24.583Z,6.77
2019-02-15T04:53:28.952Z,6.90
2019-02-15T04:58:33.344Z,6.70
2019-02-15T05:03:37.693Z,6.90
2019-02-15T05:08:42.053Z,6.10
2019-02-15T05:13:46.427Z,6.53
2019-02-15T05:18:50.804Z,6.30
2019-02-15T05:23:55.147Z,7.40
2019-02-15T05:28:59.599Z,7.23
2019-02-15T05:34:03.977Z,7.70
2019-02-15T05:39:08.790Z,7.87
2019-02-15T05:44:13.163Z,7.27
2019-02-15T05:49:17.567Z,7.20
2019-02-15T05:54:21.942Z,7.37
2019-02-15T05:59:26.295Z,6.40
2019-02-15T06:04:30.709Z,7.00
2019-02-15T06:09:35.088Z,6.70
2019-02-15T06:14:39.454Z,6.40
2019-02-15T06:19:43.793Z,6.03
2019-02-15T06:24:48.211Z,6.70
2019-02-15T06:29:52.563Z,6.73
2019-02-15T06:34:56.932Z,7.20
2019-02-15T06:40:01.485Z,6.80
2019-02-15T06:45:06.993Z,7.67
2019-02-15T06:50:11.376Z,7.23
2019-02-15T06:55:15.751Z,7.47
2019-02-15T07:00:38.012Z,7.30
2019-02-15T07:05:42.424Z,7.83
2019-02-15T07:10:46.774Z,7.33
2019-02-15T07:15:51.120Z,7.17
2019-02-15T07:20:55.507Z,7.00
2019-02-15T07:25:59.882Z,7.27
2019-02-15T07:31:04.345Z,7.27
2019-02-15T07:36:08.796Z,7.47
2019-02-15T07:41:13.162Z,7.03
2019-02-15T07:46:17.567Z,7.63
2019-02-15T07:51:21.936Z,7.10
2019-02-15T07:56:26.270Z,6.77
2019-02-15T08:01:30.679Z,6.63
2019-02-15T08:06:35.046Z,6.90
2019-02-15T08:11:39.410Z,6.67
2019-02-15T08:16:43.937Z,6.90
2019-02-15T08:21:48.313Z,6.63
2019-02-15T08:26:52.712Z,7.17
2019-02-15T08:31:57.087Z,7.40
2019-02-15T08:37:01.451Z,7.30
2019-02-15T08:42:05.886Z,6.93
2019-02-15T08:47:10.220Z,6.67
2019-02-15T08:52:14.578Z,7.12
2019-02-15T08:57:18.993Z,6.73
2019-02-15T09:02:23.321Z,7.33
2019-02-15T09:07:27.715Z,7.23
2019-02-15T09:12:32.115Z,6.63
2019-02-15T09:17:36.486Z,7.20
2019-02-15T09:22:40.867Z,6.80
2019-02-15T09:27:52.716Z,7.03
2019-02-15T09:32:57.146Z,7.10
2019-02-15T09:38:01.569Z,6.80
2019-02-15T09:43:05.921Z,6.83
2019-02-15T09:48:10.383Z,6.90
2019-02-15T09:53:15.679Z,7.47
2019-02-15T09:58:20.027Z,6.40
2019-02-15T10:03:24.396Z,6.43
2019-02-15T10:08:29.788Z,6.53
2019-02-15T10:13:34.175Z,6.33
2019-02-15T10:18:38.552Z,6.17
2019-02-15T10:23:42.880Z,6.57
2019-02-15T10:28:47.265Z,6.83
2019-02-15T10:33:51.617Z,6.57
2019-02-15T10:38:56.135Z,6.50
2019-02-15T10:44:00.523Z,6.43
2019-02-15T10:49:04.957Z,7.10
2019-02-15T10:54:09.321Z,6.67
2019-02-15T10:59:13.659Z,6.17
2019-02-15T11:04:18.071Z,6.30
2019-02-15T11:09:22.612Z,6.40
2019-02-15T11:14:27.040Z,5.90
2019-02-15T11:19:31.373Z,5.90
2019-02-15T11:24:35.842Z,6.53
2019-02-15T11:29:40.219Z,6.00
2019-02-15T11:34:44.671Z,6.03
2019-02-15T11:39:49.113Z,6.27
2019-02-15T11:44:53.551Z,5.70
2019-02-15T11:49:58.010Z,5.27
2019-02-15T11:55:02.576Z,5.93
2019-02-15T12:00:18.406Z,5.53
2019-02-15T12:05:23.487Z,3.93
2019-02-15T12:10:27.970Z,3.43
2019-02-15T12:15:32.355Z,3.70
2019-02-15T12:20:36.747Z,3.67
2019-02-15T12:25:41.288Z,3.13
2019-02-15T12:30:47.269Z,3.50
2019-02-15T12:35:51.606Z,3.60
2019-02-15T12:40:55.965Z,3.50
2019-02-15T12:46:01.228Z,2.67
2019-02-15T12:51:06.000Z,2.87
2019-02-15T12:56:10.360Z,2.77
2019-02-15T13:01:14.802Z,2.93
2019-02-15T13:06:28.189Z,2.30
2019-02-15T13:11:25.270Z,2.03
2019-02-15T13:16:29.780Z,1.93
2019-02-15T13:21:34.129Z,2.20
2019-02-15T13:26:38.472Z,1.93
2019-02-15T13:31:42.869Z,1.67
2019-02-15T13:36:47.218Z,1.90
2019-02-15T13:41:51.573Z,1.40
2019-02-15T13:46:57.650Z,1.33
2019-02-15T13:52:02.021Z,1.40
2019-02-15T13:57:06.438Z,1.20
2019-02-15T14:02:10.785Z,1.30
2019-02-15T14:07:19.152Z,1.17
2019-02-15T14:12:23.572Z,1.20
2019-02-15T14:17:29.587Z,0.83
2019-02-15T14:22:35.728Z,0.90
2019-02-15T14:27:40.109Z,1.20
2019-02-15T14:32:44.464Z,0.90
2019-02-15T14:37:48.857Z,1.23
2019-02-15T14:42:53.226Z,0.90
2019-02-15T14:47:57.572Z,0.97
2019-02-15T14:53:02.041Z,0.90
2019-02-15T14:58:06.403Z,0.90
2019-02-15T15:03:10.798Z,1.00
2019-02-15T15:08:15.128Z,1.10
2019-02-15T15:13:19.598Z,0.87
2019-02-15T15:18:24.105Z,1.10
2019-02-15T15:23:28.546Z,1.10
2019-02-15T15:28:33.090Z,1.10
2019-02-15T15:33:37.540Z,6.77
2019-02-15T15:38:41.966Z,1.63
2019-02-15T15:43:46.325Z,2.90
2019-02-15T15:48:50.669Z,1.20
2019-02-15T15:53:55.225Z,1.23
2019-02-15T15:59:01.199Z,1.10
2019-02-15T16:04:05.549Z,1.20
2019-02-15T16:09:09.895Z,1.30
2019-02-15T16:14:14.618Z,1.30
2019-02-15T16:19:19.016Z,1.30
2019-02-15T16:24:23.473Z,1.62
2019-02-15T16:29:27.857Z,1.63
2019-02-15T16:34:32.218Z,1.50
2019-02-15T16:39:36.623Z,1.40
2019-02-15T16:44:40.997Z,1.43
2019-02-15T16:49:45.404Z,1.47
2019-02-15T16:54:49.791Z,1.80
2019-02-15T16:59:54.134Z,3.60
2019-02-15T17:04:58.494Z,5.17
2019-02-15T17:10:02.917Z,3.63
2019-02-15T17:15:12.966Z,4.40
2019-02-15T17:20:18.358Z,3.30
2019-02-15T17:25:22.872Z,3.50
2019-02-15T17:30:27.232Z,3.33
2019-02-15T17:35:31.628Z,3.30
2019-02-15T17:40:36.152Z,3.30
2019-02-15T17:45:40.711Z,3.07
2019-02-15T17:50:45.157Z,3.17
2019-02-15T17:55:49.500Z,3.43
2019-02-15T18:00:53.873Z,3.33
2019-02-15T18:05:58.337Z,3.53
2019-02-15T18:11:02.685Z,3.73
2019-02-15T18:16:07.029Z,4.23
2019-02-15T18:21:11.584Z,3.57
2019-02-15T18:26:16.036Z,3.90
2019-02-15T18:31:21.565Z,5.23
2019-02-15T18:36:25.923Z,6.57
2019-02-15T18:41:30.289Z,6.20
2019-02-15T18:46:34.698Z,6.23
2019-02-15T18:51:39.210Z,5.60
2019-02-15T18:56:43.562Z,5.90
2019-02-15T19:01:48.081Z,6.13
2019-02-15T19:06:52.593Z,7.10
2019-02-15T19:11:56.950Z,6.27
2019-02-15T19:17:01.306Z,6.80
2019-02-15T19:22:05.741Z,6.90
2019-02-15T19:27:10.083Z,6.50
2019-02-15T19:32:14.508Z,6.73
2019-02-15T19:37:19.022Z,6.17
2019-02-15T19:42:23.482Z,6.27
2019-02-15T19:47:27.817Z,6.33
2019-02-15T19:52:32.287Z,6.53
2019-02-15T19:57:36.969Z,6.07
2019-02-15T20:02:41.735Z,5.90
2019-02-15T20:07:46.175Z,6.40
2019-02-15T20:12:50.560Z,6.60
2019-02-15T20:17:54.996Z,6.80
2019-02-15T20:22:59.438Z,6.77
2019-02-15T20:28:13.402Z,6.80
2019-02-15T20:33:09.922Z,6.97
2019-02-15T20:38:14.304Z,6.50
2019-02-15T20:43:18.816Z,6.17
2019-02-15T20:48:23.180Z,6.63
2019-02-15T20:53:27.530Z,6.63
2019-02-15T20:58:31.986Z,6.80
2019-02-15T21:03:36.351Z,7.20
2019-02-15T21:08:40.720Z,7.70
2019-02-15T21:13:45.129Z,7.50
2019-02-15T21:18:49.475Z,8.17
2019-02-15T21:23:53.915Z,7.40
2019-02-15T21:28:59.766Z,7.87
2019-02-15T21:34:04.516Z,7.83
2019-02-15T21:39:09.942Z,7.67
2019-02-15T21:44:14.708Z,7.43
2019-02-15T21:49:19.065Z,8.10
2019-02-15T21:54:23.520Z,7.73
2019-02-15T21:59:27.956Z,8.17
2019-02-15T22:04:32.424Z,8.00
2019-02-15T22:09:36.759Z,8.33
2019-02-15T22:14:41.370Z,7.70
2019-02-15T22:19:45.848Z,8.00
2019-02-15T22:24:50.307Z,8.37
2019-02-15T22:29:54.649Z,8.83
2019-02-15T22:34:59.044Z,8.20
2019-02-15T22:40:26.725Z,8.23
2019-02-15T22:45:31.070Z,8.40
2019-02-15T22:50:36.612Z,7.80
2019-02-15T22:55:40.985Z,7.70
2019-02-15T23:00:52.445Z,7.40
2019-02-15T23:05:58.585Z,8.23
2019-02-15T23:11:02.962Z,7.77
2019-02-15T23:16:07.306Z,7.60
2019-02-15T23:21:11.679Z,8.07
2019-02-15T23:26:16.049Z,8.00
2019-02-15T23:31:20.439Z,7.87
2019-02-15T23:36:24.797Z,8.47
2019-02-15T23:41:29.142Z,7.33
2019-02-15T23:46:33.506Z,8.37
2019-02-15T23:51:37.879Z,7.97
2019-02-15T23:56:42.248Z,7.80
